Airfield :
LOGIN :

Register | Disclaimer

   EN    FR    IT 

 










Legend :    VFR   Marginal VFR   IFR   Intensive IFR   Very Intensive IFR
Visi :
Ceiling :
>= 8 km
>= 3000ft
5 to 8 km
1000 to 3000 ft
1500m to 5 km
500 to 1000 ft
800 to 1500m
200 to 500 ft
< 800m
< 200 ft
Symbols :   Thunderstorms  Fog  Heavy snow  Heavy precipitations  Wind > 20 kt
SIGMETs :     Misc.  Thunderstorms  Icing  Turbulence  Mountain Waves  Volcanic Ashes






- Airport Elevation : 2945 ft
- IATA code : RGS


LEBG - Burgos

CURRENT METAR :
  • 041400Z 20005KT 170V240 CAVOK 26/04 Q1023

EXPIRED METARs :
  • 041330Z 31003KT CAVOK 26/05 Q1023
  • 041300Z 00000KT CAVOK 26/05 Q1023
  • 041230Z VRB03KT CAVOK 26/04 Q1024
  • 041200Z 01003KT CAVOK 26/05 Q1024
  • 041130Z 27001KT CAVOK 25/05 Q1024

TAF TAF LEBG
Valid from the 04 at 09:00 until the 05 at 09:00 UTC


040800Z 0409/0509 VRB05KT CAVOK TX28/0415Z TN06/0506Z
BECMG 0418/0421 08008KT
PROB30
TEMPO 0500/0508 3500 BR BCFG BKN010
BECMG 0501/0503 15008KT



MET'MAP, your aeronautical weather chart ! - Copyright ORBIFLY December 2007 - Disclaimer

ORBIFLY MET'MAP TEAM :

Programming & Development : Alexandra Zaïnal
Original concept : Baudouin d'Aumeries
Technical & hardware support : Manuel Goepfert
Assistance : Marc-Olivier Méhu




SOURCES & CREDITS :

   NOAA